createdAt,value
2023-05-04T00:02:12.761Z,50.90
2023-05-04T00:04:42.601Z,50.60
2023-05-04T00:07:10.456Z,51.00
2023-05-04T00:09:38.173Z,50.20
2023-05-04T00:12:07.824Z,50.80
2023-05-04T00:14:35.645Z,50.20
2023-05-04T00:17:06.125Z,50.40
2023-05-04T00:19:34.009Z,50.50
2023-05-04T00:22:02.284Z,51.30
2023-05-04T00:24:30.115Z,52.00
2023-05-04T00:26:57.832Z,52.00
2023-05-04T00:29:26.958Z,52.70
2023-05-04T00:31:54.744Z,53.10
2023-05-04T00:34:22.620Z,53.30
2023-05-04T00:36:50.329Z,53.70
2023-05-04T00:39:18.049Z,53.90
2023-05-04T00:41:45.857Z,54.50
2023-05-04T00:44:14.081Z,54.60
2023-05-04T00:46:43.490Z,54.50
2023-05-04T00:49:11.429Z,54.80
2023-05-04T00:51:39.187Z,55.40
2023-05-04T00:54:06.941Z,56.00
2023-05-04T00:56:40.972Z,56.30
2023-05-04T00:59:08.690Z,56.50
2023-05-04T01:01:36.624Z,57.10
2023-05-04T01:04:06.129Z,56.90
2023-05-04T01:06:42.530Z,57.20
2023-05-04T01:09:19.852Z,57.30
2023-05-04T01:11:55.769Z,57.50
2023-05-04T01:14:24.002Z,57.90
2023-05-04T01:16:55.969Z,57.70
2023-05-04T01:19:27.467Z,56.50
2023-05-04T01:21:57.315Z,55.80
2023-05-04T01:24:25.585Z,55.00
2023-05-04T01:26:57.554Z,54.40
2023-05-04T01:29:31.782Z,54.30
2023-05-04T01:32:00.893Z,54.80
2023-05-04T01:34:28.798Z,54.40
2023-05-04T01:36:58.468Z,54.10
2023-05-04T01:39:26.265Z,54.10
2023-05-04T01:41:54.077Z,54.50
2023-05-04T01:44:21.805Z,54.60
2023-05-04T01:46:49.546Z,55.30
2023-05-04T01:49:17.385Z,55.50
2023-05-04T01:51:46.734Z,55.60
2023-05-04T01:54:16.088Z,55.10
2023-05-04T01:56:43.853Z,55.80
2023-05-04T01:59:11.691Z,56.60
2023-05-04T02:01:39.614Z,56.50
2023-05-04T02:04:07.461Z,57.40
2023-05-04T02:06:35.410Z,57.40
2023-05-04T02:09:03.527Z,57.90
2023-05-04T02:11:32.629Z,58.10
2023-05-04T02:14:00.406Z,58.40
2023-05-04T02:16:28.146Z,58.70
2023-05-04T02:18:56.085Z,59.10
2023-05-04T02:21:24.028Z,60.00
2023-05-04T02:23:51.821Z,60.40
2023-05-04T02:26:19.669Z,61.00
2023-05-04T02:28:48.713Z,61.60
2023-05-04T02:31:16.515Z,62.10
2023-05-04T02:33:44.247Z,61.80
2023-05-04T02:36:11.922Z,62.50
2023-05-04T02:38:39.616Z,63.10
2023-05-04T02:41:07.312Z,63.80
2023-05-04T02:43:35.050Z,64.10
2023-05-04T02:46:04.167Z,64.80
2023-05-04T02:48:32.457Z,65.30
2023-05-04T02:51:00.626Z,65.40
2023-05-04T02:53:28.318Z,66.10
2023-05-04T02:55:56.050Z,67.10
2023-05-04T02:58:23.761Z,67.00
2023-05-04T03:00:54.690Z,67.10
2023-05-04T03:03:23.847Z,68.00
2023-05-04T03:05:51.553Z,67.70
2023-05-04T03:08:19.301Z,68.10
2023-05-04T03:10:47.073Z,68.00
2023-05-04T03:13:14.915Z,68.20
2023-05-04T03:15:42.743Z,68.50
2023-05-04T03:18:10.617Z,68.60
2023-05-04T03:20:39.853Z,68.50
2023-05-04T03:23:07.670Z,69.20
2023-05-04T03:25:35.378Z,69.30
2023-05-04T03:28:03.110Z,69.30
2023-05-04T03:30:30.832Z,69.20
2023-05-04T03:32:58.677Z,70.50
2023-05-04T03:35:26.640Z,70.20
2023-05-04T03:37:55.828Z,71.00
2023-05-04T03:40:24.235Z,71.40
2023-05-04T03:42:52.319Z,71.70
2023-05-04T03:45:20.420Z,72.70
2023-05-04T03:47:48.128Z,72.70
2023-05-04T03:50:16.002Z,72.80
2023-05-04T03:52:43.713Z,73.20
2023-05-04T03:55:12.815Z,73.50
2023-05-04T03:57:41.316Z,74.00
2023-05-04T04:00:10.004Z,73.70
2023-05-04T04:02:37.864Z,74.80
2023-05-04T04:05:06.601Z,74.80
2023-05-04T04:07:34.335Z,75.20
2023-05-04T04:10:02.165Z,75.10
2023-05-04T04:12:31.358Z,75.00
2023-05-04T04:14:59.088Z,75.20
2023-05-04T04:17:26.926Z,75.80
2023-05-04T04:19:54.885Z,75.50
2023-05-04T04:22:22.576Z,74.80
2023-05-04T04:24:50.378Z,73.90
2023-05-04T04:27:18.525Z,75.40
2023-05-04T04:29:47.738Z,74.00
2023-05-04T04:32:15.572Z,74.90
2023-05-04T04:34:43.337Z,73.90
2023-05-04T04:37:11.893Z,74.20
2023-05-04T04:39:39.667Z,74.50
2023-05-04T04:42:07.549Z,73.90
2023-05-04T04:44:35.713Z,73.50
2023-05-04T04:47:04.771Z,74.30
2023-05-04T04:49:32.485Z,74.60
2023-05-04T04:52:00.209Z,74.40
2023-05-04T04:54:28.381Z,74.70
2023-05-04T04:56:56.112Z,74.00
2023-05-04T04:59:24.805Z,74.30
2023-05-04T05:01:52.728Z,74.40
2023-05-04T05:04:22.203Z,73.70
2023-05-04T05:06:51.417Z,74.10
2023-05-04T05:09:19.168Z,73.60
2023-05-04T05:11:46.948Z,74.00
2023-05-04T05:14:14.634Z,73.70
2023-05-04T05:16:42.411Z,72.90
2023-05-04T05:19:10.161Z,73.20
2023-05-04T05:21:39.533Z,72.80
2023-05-04T05:24:07.539Z,72.70
2023-05-04T05:26:35.336Z,72.60
2023-05-04T05:29:03.628Z,72.20
2023-05-04T05:31:31.863Z,71.80
2023-05-04T05:33:59.782Z,71.60
2023-05-04T05:36:27.783Z,71.50
2023-05-04T05:38:56.889Z,70.80
2023-05-04T05:41:24.593Z,70.90
2023-05-04T05:43:52.411Z,70.70
2023-05-04T05:46:20.272Z,70.20
2023-05-04T05:48:48.025Z,70.40
2023-05-04T05:51:15.789Z,70.50
2023-05-04T05:53:44.772Z,69.80
2023-05-04T05:56:14.751Z,69.70
2023-05-04T05:58:42.530Z,69.20
2023-05-04T06:01:10.241Z,69.20
2023-05-04T06:03:38.113Z,68.10
2023-05-04T06:06:06.345Z,68.10
2023-05-04T06:08:34.286Z,68.30
2023-05-04T06:11:01.980Z,67.80
2023-05-04T06:13:31.008Z,68.00
2023-05-04T06:15:58.869Z,67.80
2023-05-04T06:18:26.737Z,67.00
2023-05-04T06:20:59.609Z,66.00
2023-05-04T06:23:29.273Z,66.00
2023-05-04T06:25:57.027Z,65.50
2023-05-04T06:28:24.760Z,65.40
2023-05-04T06:30:53.821Z,64.50
2023-05-04T06:33:21.794Z,62.90
2023-05-04T06:35:49.539Z,61.60
2023-05-04T06:38:17.278Z,59.20
2023-05-04T06:40:45.086Z,54.10
2023-05-04T06:43:12.952Z,49.20
2023-05-04T06:45:41.075Z,47.00
2023-05-04T06:48:10.435Z,45.60
2023-05-04T06:50:38.248Z,43.90
2023-05-04T06:53:09.421Z,41.60
2023-05-04T06:55:37.495Z,38.50
2023-05-04T06:58:05.789Z,36.60
2023-05-04T07:00:33.495Z,35.80
2023-05-04T07:03:01.296Z,36.10
2023-05-04T07:05:30.632Z,36.20
2023-05-04T07:07:59.707Z,35.20
2023-05-04T07:10:28.473Z,34.60
2023-05-04T07:12:56.629Z,34.30
2023-05-04T07:15:24.387Z,33.60
2023-05-04T07:17:52.199Z,32.30
2023-05-04T07:20:23.505Z,31.20
2023-05-04T07:22:56.766Z,31.70
2023-05-04T07:25:24.857Z,31.50
2023-05-04T07:27:53.135Z,31.10
2023-05-04T07:30:21.525Z,31.80
2023-05-04T07:32:49.437Z,32.70
2023-05-04T07:35:17.212Z,32.20
2023-05-04T07:37:44.961Z,32.10
2023-05-04T07:40:15.407Z,31.60
2023-05-04T07:42:43.164Z,31.10
2023-05-04T07:45:11.803Z,31.60
2023-05-04T07:47:39.596Z,31.10
2023-05-04T07:50:08.626Z,30.30
2023-05-04T07:52:36.432Z,30.00
2023-05-04T07:55:04.256Z,30.00
2023-05-04T07:57:35.635Z,30.80
2023-05-04T08:00:04.972Z,30.10
2023-05-04T08:02:34.479Z,29.70
2023-05-04T08:05:04.296Z,29.70
2023-05-04T08:07:34.222Z,29.80
2023-05-04T08:10:04.487Z,30.00
2023-05-04T08:12:36.248Z,30.80
2023-05-04T08:15:06.621Z,30.20
2023-05-04T08:17:38.498Z,29.30
2023-05-04T08:20:10.042Z,29.40
2023-05-04T08:22:39.769Z,29.00
2023-05-04T08:25:11.145Z,29.40
2023-05-04T08:27:42.549Z,29.10
2023-05-04T08:30:12.952Z,29.10
2023-05-04T08:32:42.821Z,29.00
2023-05-04T08:35:12.642Z,27.80
2023-05-04T08:37:42.460Z,27.60
2023-05-04T08:40:12.599Z,28.20
2023-05-04T08:42:48.594Z,28.40
2023-05-04T08:45:18.742Z,28.30
2023-05-04T08:47:48.606Z,28.80
2023-05-04T08:50:18.475Z,29.90
2023-05-04T08:52:49.402Z,30.30
2023-05-04T08:55:20.134Z,28.40
2023-05-04T08:57:51.180Z,28.20
2023-05-04T09:00:19.959Z,28.60
2023-05-04T09:02:50.083Z,28.40
2023-05-04T09:05:19.064Z,28.60
2023-05-04T09:07:48.600Z,29.00
2023-05-04T09:10:16.661Z,28.60
2023-05-04T09:12:44.449Z,29.60
2023-05-04T09:15:18.056Z,29.80
2023-05-04T09:17:57.657Z,29.30
2023-05-04T09:20:26.652Z,30.00
2023-05-04T09:23:06.837Z,30.00
2023-05-04T09:25:35.262Z,29.80
2023-05-04T09:28:02.936Z,29.90
2023-05-04T09:30:32.017Z,29.40
2023-05-04T09:33:00.237Z,29.50
2023-05-04T09:35:33.658Z,29.40
2023-05-04T09:38:02.250Z,29.60
2023-05-04T09:40:33.609Z,29.10
2023-05-04T09:43:01.458Z,28.80
2023-05-04T09:45:41.185Z,28.40
2023-05-04T09:48:21.830Z,28.70
2023-05-04T09:50:51.948Z,29.00
2023-05-04T09:53:21.417Z,29.40
2023-05-04T09:55:59.065Z,29.80
2023-05-04T09:58:30.140Z,29.90
2023-05-04T10:01:01.481Z,30.10
2023-05-04T10:03:29.606Z,30.90
2023-05-04T10:05:59.217Z,30.10
2023-05-04T10:08:28.990Z,29.60
2023-05-04T10:10:57.810Z,29.60
2023-05-04T10:13:26.149Z,29.70
2023-05-04T10:16:07.569Z,29.90
2023-05-04T10:18:49.925Z,30.10
2023-05-04T10:21:26.992Z,30.60
2023-05-04T10:24:21.464Z,30.20
2023-05-04T10:27:06.756Z,30.10
2023-05-04T10:29:36.023Z,30.00
2023-05-04T10:32:07.732Z,30.10
2023-05-04T10:34:36.800Z,30.00
2023-05-04T10:37:04.877Z,30.00
2023-05-04T10:39:33.979Z,30.30
2023-05-04T10:42:05.481Z,30.20
2023-05-04T10:44:34.505Z,30.40
2023-05-04T10:47:06.665Z,30.30
2023-05-04T10:49:35.521Z,31.10
2023-05-04T10:52:07.902Z,31.20
2023-05-04T10:54:36.186Z,32.10
2023-05-04T10:57:09.029Z,31.60
2023-05-04T10:59:37.825Z,31.40
2023-05-04T11:02:07.985Z,31.20
2023-05-04T11:04:36.232Z,32.50
2023-05-04T11:07:05.221Z,32.20
2023-05-04T11:09:37.739Z,31.50
2023-05-04T11:12:06.264Z,31.10
2023-05-04T11:14:37.614Z,30.70
2023-05-04T11:17:26.912Z,30.80
2023-05-04T11:19:56.288Z,32.00
2023-05-04T11:22:24.361Z,31.00
2023-05-04T11:24:53.286Z,32.20
2023-05-04T11:27:23.685Z,32.80
2023-05-04T11:29:58.425Z,32.20
2023-05-04T11:32:38.222Z,32.70
2023-05-04T11:35:09.102Z,33.50
2023-05-04T11:37:41.223Z,33.20
2023-05-04T11:40:14.704Z,32.90
2023-05-04T11:42:43.469Z,32.80
2023-05-04T11:45:14.218Z,33.90
2023-05-04T11:47:44.157Z,33.90
2023-05-04T11:50:13.987Z,33.80
2023-05-04T11:52:42.230Z,33.70
2023-05-04T11:55:11.407Z,32.70
2023-05-04T11:57:39.694Z,33.10
2023-05-04T12:00:09.019Z,33.80
2023-05-04T12:02:37.031Z,33.60
2023-05-04T12:05:13.956Z,33.10
2023-05-04T12:07:42.036Z,33.60
2023-05-04T12:10:10.379Z,32.90
2023-05-04T12:12:38.183Z,32.80
2023-05-04T12:15:06.630Z,32.30
2023-05-04T12:17:41.885Z,32.30
2023-05-04T12:20:11.993Z,32.00
2023-05-04T12:22:39.826Z,32.10
2023-05-04T12:25:09.285Z,31.40
2023-05-04T12:27:42.480Z,29.70
2023-05-04T12:30:11.749Z,29.70
2023-05-04T12:32:39.728Z,31.70
2023-05-04T12:35:08.258Z,31.80
2023-05-04T12:37:37.916Z,32.20
2023-05-04T12:40:17.324Z,32.30
2023-05-04T12:42:54.901Z,33.20
2023-05-04T12:45:23.205Z,33.20
2023-05-04T12:47:51.017Z,32.90
2023-05-04T12:50:18.806Z,32.60
2023-05-04T12:52:47.940Z,32.50
2023-05-04T12:55:15.723Z,32.80
2023-05-04T12:57:44.861Z,32.60
2023-05-04T13:00:14.005Z,33.10
2023-05-04T13:02:41.808Z,32.90
2023-05-04T13:05:09.774Z,32.70
2023-05-04T13:07:37.589Z,32.80
2023-05-04T13:10:07.970Z,33.40
2023-05-04T13:12:35.992Z,33.50
2023-05-04T13:15:04.097Z,34.30
2023-05-04T13:17:33.767Z,34.20
2023-05-04T13:20:05.868Z,34.40
2023-05-04T13:22:34.013Z,34.40
2023-05-04T13:25:02.050Z,34.40
2023-05-04T13:27:40.315Z,35.30
2023-05-04T13:30:10.843Z,35.70
2023-05-04T13:32:38.648Z,36.10
2023-05-04T13:35:07.589Z,35.10
2023-05-04T13:37:35.537Z,35.60
2023-05-04T13:40:03.459Z,35.00
2023-05-04T13:42:33.950Z,35.40
2023-05-04T13:45:02.986Z,35.50
2023-05-04T13:47:30.744Z,34.80
2023-05-04T13:49:58.724Z,34.60
2023-05-04T13:52:27.908Z,34.60
2023-05-04T13:54:55.932Z,35.20
2023-05-04T13:57:23.610Z,34.20
2023-05-04T14:00:05.857Z,33.90
2023-05-04T14:02:35.078Z,33.80
2023-05-04T14:05:03.779Z,33.50
2023-05-04T14:07:31.652Z,34.00
2023-05-04T14:10:00.300Z,33.50
2023-05-04T14:12:29.195Z,34.00
2023-05-04T14:14:58.917Z,34.30
2023-05-04T14:17:26.723Z,33.70
2023-05-04T14:19:54.486Z,34.50
2023-05-04T14:22:22.265Z,33.80
2023-05-04T14:24:50.456Z,34.10
2023-05-04T14:27:18.346Z,34.30
2023-05-04T14:29:47.845Z,34.70
2023-05-04T14:32:17.305Z,34.10
2023-05-04T14:34:46.765Z,34.40
2023-05-04T14:37:14.715Z,34.70
2023-05-04T14:39:42.456Z,35.10
2023-05-04T14:42:10.172Z,34.30
2023-05-04T14:44:37.859Z,34.40
2023-05-04T14:47:07.745Z,34.00
2023-05-04T14:49:42.221Z,33.90
2023-05-04T14:52:10.104Z,34.40
2023-05-04T14:54:38.310Z,34.70
2023-05-04T14:57:08.909Z,34.00
2023-05-04T14:59:37.407Z,33.40
2023-05-04T15:02:06.482Z,33.80
2023-05-04T15:04:34.639Z,33.70
2023-05-04T15:07:05.213Z,35.00
2023-05-04T15:09:33.112Z,35.10
2023-05-04T15:12:00.853Z,35.20
2023-05-04T15:14:28.555Z,35.90
2023-05-04T15:16:56.237Z,34.30
2023-05-04T15:19:23.960Z,34.00
2023-05-04T15:21:51.822Z,33.60
2023-05-04T15:24:20.921Z,33.80
2023-05-04T15:26:48.713Z,33.50
2023-05-04T15:29:16.474Z,33.20
2023-05-04T15:31:44.367Z,33.90
2023-05-04T15:34:12.161Z,33.20
2023-05-04T15:36:39.910Z,34.00
2023-05-04T15:39:08.224Z,34.40
2023-05-04T15:41:37.608Z,35.10
2023-05-04T15:44:06.633Z,34.40
2023-05-04T15:46:34.497Z,34.60
2023-05-04T15:49:02.278Z,34.60
2023-05-04T15:51:31.742Z,34.30
2023-05-04T15:53:59.587Z,34.20
2023-05-04T15:56:27.405Z,34.70
2023-05-04T15:58:56.662Z,34.50
2023-05-04T16:01:24.500Z,34.30
2023-05-04T16:03:55.280Z,34.10
2023-05-04T16:06:23.721Z,33.90
2023-05-04T16:08:51.702Z,32.90
2023-05-04T16:11:19.521Z,32.40
2023-05-04T16:13:47.222Z,32.40
2023-05-04T16:16:16.397Z,33.10
2023-05-04T16:18:44.318Z,34.20
2023-05-04T16:21:14.032Z,34.20
2023-05-04T16:23:41.812Z,35.30
2023-05-04T16:26:09.663Z,35.20
2023-05-04T16:28:37.913Z,35.40
2023-05-04T16:31:05.951Z,35.60
2023-05-04T16:33:35.095Z,35.30
2023-05-04T16:36:05.669Z,35.50
2023-05-04T16:38:33.333Z,35.50
2023-05-04T16:41:01.044Z,35.80
2023-05-04T16:43:28.762Z,35.10
2023-05-04T16:45:56.591Z,35.70
2023-05-04T16:48:24.330Z,35.80
2023-05-04T16:50:53.469Z,36.20
2023-05-04T16:53:21.343Z,35.90
2023-05-04T16:55:50.830Z,35.70
2023-05-04T16:58:18.620Z,35.70
2023-05-04T17:00:47.397Z,35.90
2023-05-04T17:03:15.264Z,36.40
2023-05-04T17:05:43.066Z,36.80
2023-05-04T17:08:12.493Z,37.10
2023-05-04T17:10:41.025Z,37.00
2023-05-04T17:13:08.862Z,36.60
2023-05-04T17:15:36.617Z,37.20
2023-05-04T17:18:04.587Z,36.80
2023-05-04T17:20:32.387Z,36.70
2023-05-04T17:23:00.496Z,36.90
2023-05-04T17:25:29.701Z,36.90
2023-05-04T17:27:57.430Z,36.50
2023-05-04T17:30:25.954Z,36.80
2023-05-04T17:32:55.728Z,37.20
2023-05-04T17:35:26.251Z,37.20
2023-05-04T17:37:57.042Z,37.30
2023-05-04T17:40:26.054Z,37.30
2023-05-04T17:42:55.248Z,37.30
2023-05-04T17:45:23.136Z,37.10
2023-05-04T17:47:51.622Z,36.90
2023-05-04T17:50:19.798Z,37.10
2023-05-04T17:52:52.453Z,37.50
2023-05-04T17:55:20.336Z,37.50
2023-05-04T17:57:48.070Z,37.40
2023-05-04T18:00:18.093Z,37.10
2023-05-04T18:02:46.017Z,37.00
2023-05-04T18:05:13.877Z,37.00
2023-05-04T18:07:41.707Z,37.10
2023-05-04T18:10:10.566Z,37.10
2023-05-04T18:12:38.681Z,37.30
2023-05-04T18:15:08.908Z,37.70
2023-05-04T18:17:38.664Z,38.30
2023-05-04T18:20:08.992Z,38.80
2023-05-04T18:22:37.363Z,38.90
2023-05-04T18:25:05.641Z,38.50
2023-05-04T18:27:34.319Z,38.90
2023-05-04T18:30:02.454Z,40.00
2023-05-04T18:32:30.377Z,39.50
2023-05-04T18:34:59.500Z,40.20
2023-05-04T18:37:30.334Z,40.30
2023-05-04T18:39:58.429Z,40.30
2023-05-04T18:42:26.720Z,39.50
2023-05-04T18:44:54.687Z,39.10
2023-05-04T18:47:22.505Z,39.30
2023-05-04T18:49:54.416Z,39.50
2023-05-04T18:52:23.765Z,40.10
2023-05-04T18:54:51.522Z,40.30
2023-05-04T18:57:19.346Z,40.60
2023-05-04T18:59:47.060Z,40.70
2023-05-04T19:02:15.133Z,40.40
2023-05-04T19:04:42.902Z,40.80
2023-05-04T19:07:10.639Z,40.60
2023-05-04T19:09:39.847Z,40.90
2023-05-04T19:12:08.018Z,40.70
2023-05-04T19:14:35.752Z,41.60
2023-05-04T19:17:04.680Z,41.70
2023-05-04T19:19:36.250Z,41.70
2023-05-04T19:22:04.208Z,41.50
2023-05-04T19:24:34.222Z,41.70
2023-05-04T19:27:03.379Z,41.20
2023-05-04T19:29:31.068Z,41.00
2023-05-04T19:32:01.287Z,41.90
2023-05-04T19:34:33.603Z,42.50
2023-05-04T19:37:01.370Z,42.30
2023-05-04T19:39:29.398Z,42.20
2023-05-04T19:41:57.109Z,42.40
2023-05-04T19:44:26.206Z,43.00
2023-05-04T19:46:53.961Z,42.50
2023-05-04T19:49:22.152Z,42.30
2023-05-04T19:51:50.024Z,42.60
2023-05-04T19:54:17.987Z,42.80
2023-05-04T19:56:46.233Z,42.80
2023-05-04T19:59:14.040Z,42.80
2023-05-04T20:01:43.182Z,42.70
2023-05-04T20:04:11.054Z,42.70
2023-05-04T20:06:38.842Z,42.80
2023-05-04T20:09:06.690Z,42.90
2023-05-04T20:11:35.883Z,42.90
2023-05-04T20:14:03.620Z,43.00
2023-05-04T20:16:31.596Z,43.10
2023-05-04T20:19:03.429Z,43.10
2023-05-04T20:21:32.086Z,43.30
2023-05-04T20:23:59.938Z,43.70
2023-05-04T20:26:27.693Z,43.90
2023-05-04T20:28:55.473Z,44.00
2023-05-04T20:31:23.285Z,43.80
2023-05-04T20:33:51.003Z,44.00
2023-05-04T20:36:20.115Z,44.00
2023-05-04T20:38:48.001Z,44.20
2023-05-04T20:41:15.883Z,44.00
2023-05-04T20:43:43.746Z,44.00
2023-05-04T20:46:12.024Z,44.00
2023-05-04T20:48:40.645Z,43.90
2023-05-04T20:51:14.679Z,43.80
2023-05-04T20:53:45.171Z,43.90
2023-05-04T20:56:14.619Z,43.90
2023-05-04T20:58:42.384Z,44.00
2023-05-04T21:01:10.217Z,44.10
2023-05-04T21:03:38.122Z,44.20
2023-05-04T21:06:06.472Z,44.20
2023-05-04T21:08:34.370Z,44.50
2023-05-04T21:11:03.415Z,44.80
2023-05-04T21:13:31.327Z,44.70
2023-05-04T21:15:59.437Z,44.80
2023-05-04T21:18:27.422Z,44.70
2023-05-04T21:20:55.301Z,45.10
2023-05-04T21:23:24.893Z,44.70
2023-05-04T21:26:01.017Z,45.10
2023-05-04T21:28:30.304Z,45.50
2023-05-04T21:30:58.778Z,45.30
2023-05-04T21:33:26.613Z,46.80
2023-05-04T21:35:54.765Z,47.70
2023-05-04T21:38:22.694Z,47.20
2023-05-04T21:40:51.535Z,46.70
2023-05-04T21:43:19.390Z,46.70
2023-05-04T21:45:48.701Z,46.60
2023-05-04T21:48:16.504Z,46.30
2023-05-04T21:50:44.389Z,46.10
2023-05-04T21:53:12.230Z,45.90
2023-05-04T21:55:40.282Z,46.80
2023-05-04T21:58:08.084Z,47.90
2023-05-04T22:00:36.129Z,49.40
2023-05-04T22:03:05.400Z,50.10
2023-05-04T22:05:33.368Z,49.80
2023-05-04T22:08:01.586Z,50.10
2023-05-04T22:10:29.448Z,50.00
2023-05-04T22:12:57.249Z,49.80
2023-05-04T22:15:31.676Z,50.40
2023-05-04T22:18:07.404Z,50.50
2023-05-04T22:20:35.216Z,51.10
2023-05-04T22:23:03.068Z,51.10
2023-05-04T22:25:31.211Z,51.60
2023-05-04T22:27:59.324Z,51.60
2023-05-04T22:30:27.608Z,52.00
2023-05-04T22:32:56.191Z,51.90
2023-05-04T22:35:25.498Z,52.60
2023-05-04T22:37:53.398Z,52.20
2023-05-04T22:40:21.350Z,52.70
2023-05-04T22:42:49.195Z,53.30
2023-05-04T22:45:17.983Z,53.10
2023-05-04T22:47:46.169Z,53.20
2023-05-04T22:50:14.276Z,53.50
2023-05-04T22:52:43.656Z,53.60
2023-05-04T22:55:11.624Z,53.80
2023-05-04T22:57:39.347Z,53.60
2023-05-04T23:00:08.970Z,54.40
2023-05-04T23:02:37.141Z,57.30
2023-05-04T23:05:05.856Z,58.70
2023-05-04T23:07:33.738Z,58.50
2023-05-04T23:10:03.195Z,59.00
2023-05-04T23:12:31.482Z,58.70
2023-05-04T23:14:59.223Z,56.80
2023-05-04T23:17:27.003Z,56.20
2023-05-04T23:19:54.784Z,56.00
2023-05-04T23:22:22.568Z,56.40
2023-05-04T23:24:50.329Z,56.80
2023-05-04T23:27:19.381Z,57.00
2023-05-04T23:29:47.058Z,57.20
2023-05-04T23:32:14.762Z,57.70
2023-05-04T23:34:42.488Z,57.70
2023-05-04T23:37:10.591Z,58.20
2023-05-04T23:39:38.339Z,58.30
2023-05-04T23:42:06.107Z,58.70
2023-05-04T23:44:35.236Z,58.60
2023-05-04T23:47:03.029Z,58.60
2023-05-04T23:49:30.811Z,58.80
2023-05-04T23:51:58.494Z,58.70
2023-05-04T23:54:26.172Z,58.60
2023-05-04T23:56:53.965Z,58.80
2023-05-04T23:59:21.717Z,58.90
